sensor_id;sensor_type;location;lat;lon;timestamp;P1;durP1;ratioP1;P2;durP2;ratioP2
2129;SDS011;1071;52.544;13.374;2023-12-07T00:02:03;20.52;;;17.38;;
2129;SDS011;1071;52.544;13.374;2023-12-07T00:04:30;23.33;;;17.52;;
2129;SDS011;1071;52.544;13.374;2023-12-07T00:06:59;21.77;;;16.70;;
2129;SDS011;1071;52.544;13.374;2023-12-07T00:09:26;18.10;;;15.80;;
2129;SDS011;1071;52.544;13.374;2023-12-07T00:11:57;19.75;;;17.20;;
2129;SDS011;1071;52.544;13.374;2023-12-07T00:14:24;20.48;;;17.20;;
2129;SDS011;1071;52.544;13.374;2023-12-07T00:16:51;23.23;;;18.25;;
2129;SDS011;1071;52.544;13.374;2023-12-07T00:19:17;26.63;;;19.05;;
2129;SDS011;1071;52.544;13.374;2023-12-07T00:21:45;20.80;;;17.58;;
2129;SDS011;1071;52.544;13.374;2023-12-07T00:24:14;20.10;;;17.85;;
2129;SDS011;1071;52.544;13.374;2023-12-07T00:26:41;20.73;;;16.70;;
2129;SDS011;1071;52.544;13.374;2023-12-07T00:29:08;17.73;;;15.30;;
2129;SDS011;1071;52.544;13.374;2023-12-07T00:31:35;19.02;;;15.45;;
2129;SDS011;1071;52.544;13.374;2023-12-07T00:34:02;22.38;;;17.45;;
2129;SDS011;1071;52.544;13.374;2023-12-07T00:36:30;23.13;;;18.55;;
2129;SDS011;1071;52.544;13.374;2023-12-07T00:39:00;19.40;;;16.67;;
2129;SDS011;1071;52.544;13.374;2023-12-07T00:41:31;20.20;;;16.73;;
2129;SDS011;1071;52.544;13.374;2023-12-07T00:43:58;19.00;;;16.35;;
2129;SDS011;1071;52.544;13.374;2023-12-07T00:46:25;22.67;;;17.88;;
2129;SDS011;1071;52.544;13.374;2023-12-07T00:48:53;19.52;;;15.85;;
2129;SDS011;1071;52.544;13.374;2023-12-07T00:51:20;21.05;;;18.25;;
2129;SDS011;1071;52.544;13.374;2023-12-07T00:53:47;23.60;;;18.65;;
2129;SDS011;1071;52.544;13.374;2023-12-07T00:56:14;19.25;;;16.67;;
2129;SDS011;1071;52.544;13.374;2023-12-07T00:58:42;22.40;;;18.00;;
2129;SDS011;1071;52.544;13.374;2023-12-07T01:01:09;22.67;;;16.92;;
2129;SDS011;1071;52.544;13.374;2023-12-07T01:03:36;22.05;;;17.88;;
2129;SDS011;1071;52.544;13.374;2023-12-07T01:06:05;19.98;;;17.80;;
2129;SDS011;1071;52.544;13.374;2023-12-07T01:08:32;21.27;;;17.02;;
2129;SDS011;1071;52.544;13.374;2023-12-07T01:11:00;22.73;;;16.90;;
2129;SDS011;1071;52.544;13.374;2023-12-07T01:13:27;20.65;;;17.40;;
2129;SDS011;1071;52.544;13.374;2023-12-07T01:15:55;20.73;;;17.33;;
2129;SDS011;1071;52.544;13.374;2023-12-07T01:18:22;21.45;;;17.73;;
2129;SDS011;1071;52.544;13.374;2023-12-07T01:20:49;21.50;;;17.63;;
2129;SDS011;1071;52.544;13.374;2023-12-07T01:23:16;23.00;;;17.58;;
2129;SDS011;1071;52.544;13.374;2023-12-07T01:25:43;22.55;;;18.10;;
2129;SDS011;1071;52.544;13.374;2023-12-07T01:28:10;22.20;;;17.67;;
2129;SDS011;1071;52.544;13.374;2023-12-07T01:30:38;19.67;;;17.08;;
2129;SDS011;1071;52.544;13.374;2023-12-07T01:33:06;23.30;;;18.50;;
2129;SDS011;1071;52.544;13.374;2023-12-07T01:35:33;19.25;;;16.88;;
2129;SDS011;1071;52.544;13.374;2023-12-07T01:38:00;19.83;;;17.73;;
2129;SDS011;1071;52.544;13.374;2023-12-07T01:40:27;22.23;;;16.73;;
2129;SDS011;1071;52.544;13.374;2023-12-07T01:42:54;18.60;;;16.60;;
2129;SDS011;1071;52.544;13.374;2023-12-07T01:45:21;20.98;;;17.50;;
2129;SDS011;1071;52.544;13.374;2023-12-07T01:47:52;21.95;;;17.08;;
2129;SDS011;1071;52.544;13.374;2023-12-07T01:50:26;20.40;;;17.52;;
2129;SDS011;1071;52.544;13.374;2023-12-07T01:52:57;21.50;;;17.73;;
2129;SDS011;1071;52.544;13.374;2023-12-07T01:55:27;18.48;;;16.05;;
2129;SDS011;1071;52.544;13.374;2023-12-07T01:57:58;20.00;;;16.52;;
2129;SDS011;1071;52.544;13.374;2023-12-07T02:00:25;22.77;;;17.35;;
2129;SDS011;1071;52.544;13.374;2023-12-07T02:02:53;23.42;;;17.38;;
2129;SDS011;1071;52.544;13.374;2023-12-07T02:05:21;22.45;;;18.25;;
2129;SDS011;1071;52.544;13.374;2023-12-07T02:07:50;21.05;;;16.70;;
2129;SDS011;1071;52.544;13.374;2023-12-07T02:10:18;19.70;;;16.60;;
2129;SDS011;1071;52.544;13.374;2023-12-07T02:12:45;23.92;;;17.55;;
2129;SDS011;1071;52.544;13.374;2023-12-07T02:15:13;20.95;;;17.58;;
2129;SDS011;1071;52.544;13.374;2023-12-07T02:17:42;22.75;;;16.63;;
2129;SDS011;1071;52.544;13.374;2023-12-07T02:20:22;21.50;;;18.05;;
2129;SDS011;1071;52.544;13.374;2023-12-07T02:23:00;22.50;;;16.13;;
2129;SDS011;1071;52.544;13.374;2023-12-07T02:25:35;17.95;;;15.32;;
2129;SDS011;1071;52.544;13.374;2023-12-07T02:28:04;18.63;;;15.73;;
2129;SDS011;1071;52.544;13.374;2023-12-07T02:30:31;19.48;;;17.38;;
2129;SDS011;1071;52.544;13.374;2023-12-07T02:32:58;20.30;;;15.82;;
2129;SDS011;1071;52.544;13.374;2023-12-07T02:35:25;20.10;;;16.98;;
2129;SDS011;1071;52.544;13.374;2023-12-07T02:37:54;18.67;;;15.73;;
2129;SDS011;1071;52.544;13.374;2023-12-07T02:40:22;21.92;;;16.65;;
2129;SDS011;1071;52.544;13.374;2023-12-07T02:42:51;22.40;;;17.08;;
2129;SDS011;1071;52.544;13.374;2023-12-07T02:45:20;21.40;;;17.30;;
2129;SDS011;1071;52.544;13.374;2023-12-07T02:47:48;18.90;;;16.70;;
2129;SDS011;1071;52.544;13.374;2023-12-07T02:50:15;18.58;;;16.45;;
2129;SDS011;1071;52.544;13.374;2023-12-07T02:52:42;20.70;;;16.38;;
2129;SDS011;1071;52.544;13.374;2023-12-07T02:55:10;18.80;;;16.80;;
2129;SDS011;1071;52.544;13.374;2023-12-07T02:57:38;18.20;;;15.73;;
2129;SDS011;1071;52.544;13.374;2023-12-07T03:00:05;20.02;;;16.48;;
2129;SDS011;1071;52.544;13.374;2023-12-07T03:02:34;21.70;;;17.30;;
2129;SDS011;1071;52.544;13.374;2023-12-07T03:05:02;22.25;;;18.30;;
2129;SDS011;1071;52.544;13.374;2023-12-07T03:07:30;19.85;;;17.25;;
2129;SDS011;1071;52.544;13.374;2023-12-07T03:09:57;19.25;;;17.05;;
2129;SDS011;1071;52.544;13.374;2023-12-07T03:12:24;20.75;;;17.35;;
2129;SDS011;1071;52.544;13.374;2023-12-07T03:14:51;22.40;;;18.38;;
2129;SDS011;1071;52.544;13.374;2023-12-07T03:17:18;20.48;;;17.08;;
2129;SDS011;1071;52.544;13.374;2023-12-07T03:19:46;23.90;;;18.60;;
2129;SDS011;1071;52.544;13.374;2023-12-07T03:22:14;21.27;;;17.33;;
2129;SDS011;1071;52.544;13.374;2023-12-07T03:24:44;24.20;;;17.85;;
2129;SDS011;1071;52.544;13.374;2023-12-07T03:27:12;25.17;;;18.42;;
2129;SDS011;1071;52.544;13.374;2023-12-07T03:29:41;22.40;;;18.10;;
2129;SDS011;1071;52.544;13.374;2023-12-07T03:32:08;22.65;;;17.65;;
2129;SDS011;1071;52.544;13.374;2023-12-07T03:34:35;20.02;;;16.95;;
2129;SDS011;1071;52.544;13.374;2023-12-07T03:37:04;21.45;;;17.23;;
2129;SDS011;1071;52.544;13.374;2023-12-07T03:39:32;23.65;;;19.50;;
2129;SDS011;1071;52.544;13.374;2023-12-07T03:41:59;22.15;;;19.52;;
2129;SDS011;1071;52.544;13.374;2023-12-07T03:44:26;23.05;;;18.42;;
2129;SDS011;1071;52.544;13.374;2023-12-07T03:46:54;21.95;;;17.67;;
2129;SDS011;1071;52.544;13.374;2023-12-07T03:49:21;22.85;;;17.58;;
2129;SDS011;1071;52.544;13.374;2023-12-07T03:51:48;24.10;;;19.35;;
2129;SDS011;1071;52.544;13.374;2023-12-07T03:54:17;24.80;;;19.13;;
2129;SDS011;1071;52.544;13.374;2023-12-07T03:56:44;23.17;;;19.15;;
2129;SDS011;1071;52.544;13.374;2023-12-07T03:59:11;24.75;;;19.13;;
2129;SDS011;1071;52.544;13.374;2023-12-07T04:01:38;24.80;;;18.95;;
2129;SDS011;1071;52.544;13.374;2023-12-07T04:04:05;25.88;;;19.15;;
2129;SDS011;1071;52.544;13.374;2023-12-07T04:06:32;24.70;;;20.05;;
2129;SDS011;1071;52.544;13.374;2023-12-07T04:08:59;24.05;;;19.23;;
2129;SDS011;1071;52.544;13.374;2023-12-07T04:11:27;23.58;;;19.45;;
2129;SDS011;1071;52.544;13.374;2023-12-07T04:13:55;24.55;;;18.83;;
2129;SDS011;1071;52.544;13.374;2023-12-07T04:16:27;22.15;;;19.17;;
2129;SDS011;1071;52.544;13.374;2023-12-07T04:18:54;27.38;;;19.25;;
2129;SDS011;1071;52.544;13.374;2023-12-07T04:21:21;23.65;;;19.90;;
2129;SDS011;1071;52.544;13.374;2023-12-07T04:23:48;24.02;;;18.90;;
2129;SDS011;1071;52.544;13.374;2023-12-07T04:26:15;22.25;;;18.65;;
2129;SDS011;1071;52.544;13.374;2023-12-07T04:28:43;25.40;;;20.00;;
2129;SDS011;1071;52.544;13.374;2023-12-07T04:31:10;26.35;;;20.48;;
2129;SDS011;1071;52.544;13.374;2023-12-07T04:33:38;23.48;;;18.92;;
2129;SDS011;1071;52.544;13.374;2023-12-07T04:36:05;23.95;;;19.10;;
2129;SDS011;1071;52.544;13.374;2023-12-07T04:38:33;25.63;;;19.58;;
2129;SDS011;1071;52.544;13.374;2023-12-07T04:41:01;29.67;;;22.63;;
2129;SDS011;1071;52.544;13.374;2023-12-07T04:43:28;25.70;;;21.15;;
2129;SDS011;1071;52.544;13.374;2023-12-07T04:45:56;27.27;;;20.70;;
2129;SDS011;1071;52.544;13.374;2023-12-07T04:48:23;27.75;;;21.30;;
2129;SDS011;1071;52.544;13.374;2023-12-07T04:50:50;22.90;;;18.73;;
2129;SDS011;1071;52.544;13.374;2023-12-07T04:53:17;27.65;;;19.40;;
2129;SDS011;1071;52.544;13.374;2023-12-07T04:55:45;26.70;;;19.52;;
2129;SDS011;1071;52.544;13.374;2023-12-07T04:58:15;25.27;;;19.52;;
2129;SDS011;1071;52.544;13.374;2023-12-07T05:00:42;25.05;;;18.33;;
2129;SDS011;1071;52.544;13.374;2023-12-07T05:03:11;30.88;;;20.90;;
2129;SDS011;1071;52.544;13.374;2023-12-07T05:05:38;27.35;;;19.00;;
2129;SDS011;1071;52.544;13.374;2023-12-07T05:08:05;27.02;;;19.27;;
2129;SDS011;1071;52.544;13.374;2023-12-07T05:10:33;29.55;;;20.10;;
2129;SDS011;1071;52.544;13.374;2023-12-07T05:13:00;31.60;;;20.48;;
2129;SDS011;1071;52.544;13.374;2023-12-07T05:15:27;27.67;;;21.27;;
2129;SDS011;1071;52.544;13.374;2023-12-07T05:18:03;25.13;;;19.00;;
2129;SDS011;1071;52.544;13.374;2023-12-07T05:20:33;26.00;;;19.33;;
2129;SDS011;1071;52.544;13.374;2023-12-07T05:23:01;28.70;;;19.50;;
2129;SDS011;1071;52.544;13.374;2023-12-07T05:25:28;29.65;;;19.38;;
2129;SDS011;1071;52.544;13.374;2023-12-07T05:27:55;31.30;;;21.35;;
2129;SDS011;1071;52.544;13.374;2023-12-07T05:30:24;27.27;;;19.15;;
2129;SDS011;1071;52.544;13.374;2023-12-07T05:32:51;27.45;;;20.42;;
2129;SDS011;1071;52.544;13.374;2023-12-07T05:35:18;28.60;;;19.92;;
2129;SDS011;1071;52.544;13.374;2023-12-07T05:37:47;33.10;;;21.98;;
2129;SDS011;1071;52.544;13.374;2023-12-07T05:40:14;30.67;;;20.80;;
2129;SDS011;1071;52.544;13.374;2023-12-07T05:42:41;33.40;;;20.40;;
2129;SDS011;1071;52.544;13.374;2023-12-07T05:45:09;30.60;;;20.48;;
2129;SDS011;1071;52.544;13.374;2023-12-07T05:47:36;32.15;;;20.58;;
2129;SDS011;1071;52.544;13.374;2023-12-07T05:50:05;31.80;;;20.45;;
2129;SDS011;1071;52.544;13.374;2023-12-07T05:52:35;29.80;;;19.75;;
2129;SDS011;1071;52.544;13.374;2023-12-07T05:55:03;27.70;;;18.80;;
2129;SDS011;1071;52.544;13.374;2023-12-07T05:57:31;28.40;;;20.15;;
2129;SDS011;1071;52.544;13.374;2023-12-07T05:59:58;30.48;;;17.65;;
2129;SDS011;1071;52.544;13.374;2023-12-07T06:02:26;25.40;;;17.90;;
2129;SDS011;1071;52.544;13.374;2023-12-07T06:04:53;26.48;;;17.52;;
2129;SDS011;1071;52.544;13.374;2023-12-07T06:07:20;25.15;;;18.42;;
2129;SDS011;1071;52.544;13.374;2023-12-07T06:09:47;25.95;;;19.45;;
2129;SDS011;1071;52.544;13.374;2023-12-07T06:12:15;26.35;;;18.25;;
2129;SDS011;1071;52.544;13.374;2023-12-07T06:14:42;26.73;;;19.02;;
2129;SDS011;1071;52.544;13.374;2023-12-07T06:17:09;27.52;;;19.17;;
2129;SDS011;1071;52.544;13.374;2023-12-07T06:19:36;30.70;;;18.75;;
2129;SDS011;1071;52.544;13.374;2023-12-07T06:22:03;27.75;;;20.10;;
2129;SDS011;1071;52.544;13.374;2023-12-07T06:24:31;29.98;;;18.75;;
2129;SDS011;1071;52.544;13.374;2023-12-07T06:26:58;26.48;;;18.00;;
2129;SDS011;1071;52.544;13.374;2023-12-07T06:29:28;27.55;;;19.88;;
2129;SDS011;1071;52.544;13.374;2023-12-07T06:31:55;27.33;;;18.80;;
2129;SDS011;1071;52.544;13.374;2023-12-07T06:34:22;30.77;;;19.98;;
2129;SDS011;1071;52.544;13.374;2023-12-07T06:36:53;26.25;;;20.00;;
2129;SDS011;1071;52.544;13.374;2023-12-07T06:39:20;29.58;;;20.17;;
2129;SDS011;1071;52.544;13.374;2023-12-07T06:41:47;26.40;;;19.80;;
2129;SDS011;1071;52.544;13.374;2023-12-07T06:44:14;27.55;;;21.23;;
2129;SDS011;1071;52.544;13.374;2023-12-07T06:46:42;28.33;;;19.60;;
2129;SDS011;1071;52.544;13.374;2023-12-07T06:49:08;28.45;;;19.05;;
2129;SDS011;1071;52.544;13.374;2023-12-07T06:51:37;30.25;;;20.15;;
2129;SDS011;1071;52.544;13.374;2023-12-07T06:54:05;28.85;;;19.77;;
2129;SDS011;1071;52.544;13.374;2023-12-07T06:56:32;29.40;;;19.67;;
2129;SDS011;1071;52.544;13.374;2023-12-07T06:59:00;30.95;;;20.75;;
2129;SDS011;1071;52.544;13.374;2023-12-07T07:01:27;27.90;;;18.85;;
2129;SDS011;1071;52.544;13.374;2023-12-07T07:03:55;29.08;;;18.50;;
2129;SDS011;1071;52.544;13.374;2023-12-07T07:06:22;31.70;;;20.90;;
2129;SDS011;1071;52.544;13.374;2023-12-07T07:08:52;31.48;;;21.00;;
2129;SDS011;1071;52.544;13.374;2023-12-07T07:11:19;30.25;;;18.73;;
2129;SDS011;1071;52.544;13.374;2023-12-07T07:13:46;27.13;;;18.70;;
2129;SDS011;1071;52.544;13.374;2023-12-07T07:16:13;32.80;;;20.25;;
2129;SDS011;1071;52.544;13.374;2023-12-07T07:18:40;30.90;;;19.40;;
2129;SDS011;1071;52.544;13.374;2023-12-07T07:21:08;24.85;;;18.10;;
2129;SDS011;1071;52.544;13.374;2023-12-07T07:23:35;30.35;;;18.75;;
2129;SDS011;1071;52.544;13.374;2023-12-07T07:26:02;27.67;;;19.48;;
2129;SDS011;1071;52.544;13.374;2023-12-07T07:28:30;26.52;;;18.25;;
2129;SDS011;1071;52.544;13.374;2023-12-07T07:30:57;26.48;;;19.35;;
2129;SDS011;1071;52.544;13.374;2023-12-07T07:33:24;35.00;;;20.92;;
2129;SDS011;1071;52.544;13.374;2023-12-07T07:35:52;27.67;;;19.10;;
2129;SDS011;1071;52.544;13.374;2023-12-07T07:38:20;27.45;;;19.35;;
2129;SDS011;1071;52.544;13.374;2023-12-07T07:40:48;30.15;;;20.38;;
2129;SDS011;1071;52.544;13.374;2023-12-07T07:43:15;30.35;;;19.50;;
2129;SDS011;1071;52.544;13.374;2023-12-07T07:45:42;29.35;;;20.80;;
2129;SDS011;1071;52.544;13.374;2023-12-07T07:48:10;31.58;;;20.33;;
2129;SDS011;1071;52.544;13.374;2023-12-07T07:50:38;31.27;;;22.10;;
2129;SDS011;1071;52.544;13.374;2023-12-07T07:53:05;33.85;;;23.13;;
2129;SDS011;1071;52.544;13.374;2023-12-07T07:55:33;33.53;;;19.98;;
2129;SDS011;1071;52.544;13.374;2023-12-07T07:58:00;27.02;;;18.58;;
2129;SDS011;1071;52.544;13.374;2023-12-07T08:00:27;32.05;;;21.50;;
2129;SDS011;1071;52.544;13.374;2023-12-07T08:02:55;29.25;;;21.05;;
2129;SDS011;1071;52.544;13.374;2023-12-07T08:05:22;29.52;;;19.65;;
2129;SDS011;1071;52.544;13.374;2023-12-07T08:07:49;29.77;;;20.80;;
2129;SDS011;1071;52.544;13.374;2023-12-07T08:10:17;28.90;;;20.17;;
2129;SDS011;1071;52.544;13.374;2023-12-07T08:12:46;29.30;;;20.60;;
2129;SDS011;1071;52.544;13.374;2023-12-07T08:15:13;27.20;;;18.77;;
2129;SDS011;1071;52.544;13.374;2023-12-07T08:17:41;28.30;;;20.23;;
2129;SDS011;1071;52.544;13.374;2023-12-07T08:20:09;26.85;;;17.80;;
2129;SDS011;1071;52.544;13.374;2023-12-07T08:22:46;28.38;;;18.20;;
2129;SDS011;1071;52.544;13.374;2023-12-07T08:25:14;29.10;;;18.80;;
2129;SDS011;1071;52.544;13.374;2023-12-07T08:27:42;29.17;;;18.70;;
2129;SDS011;1071;52.544;13.374;2023-12-07T08:30:12;29.45;;;18.90;;
2129;SDS011;1071;52.544;13.374;2023-12-07T08:32:39;27.20;;;20.30;;
2129;SDS011;1071;52.544;13.374;2023-12-07T08:35:07;24.85;;;18.02;;
2129;SDS011;1071;52.544;13.374;2023-12-07T08:37:36;28.25;;;18.98;;
2129;SDS011;1071;52.544;13.374;2023-12-07T08:40:04;25.52;;;18.50;;
2129;SDS011;1071;52.544;13.374;2023-12-07T08:42:31;30.40;;;20.15;;
2129;SDS011;1071;52.544;13.374;2023-12-07T08:44:58;28.98;;;17.60;;
2129;SDS011;1071;52.544;13.374;2023-12-07T08:47:27;25.63;;;19.63;;
2129;SDS011;1071;52.544;13.374;2023-12-07T08:49:55;28.95;;;19.02;;
2129;SDS011;1071;52.544;13.374;2023-12-07T08:52:22;28.13;;;19.98;;
2129;SDS011;1071;52.544;13.374;2023-12-07T08:54:49;25.55;;;17.27;;
2129;SDS011;1071;52.544;13.374;2023-12-07T08:57:17;24.30;;;18.25;;
2129;SDS011;1071;52.544;13.374;2023-12-07T08:59:44;26.98;;;19.95;;
2129;SDS011;1071;52.544;13.374;2023-12-07T09:02:11;26.17;;;18.75;;
2129;SDS011;1071;52.544;13.374;2023-12-07T09:04:39;24.27;;;17.55;;
2129;SDS011;1071;52.544;13.374;2023-12-07T09:07:06;22.35;;;17.15;;
2129;SDS011;1071;52.544;13.374;2023-12-07T09:09:34;25.75;;;17.52;;
2129;SDS011;1071;52.544;13.374;2023-12-07T09:12:01;23.98;;;15.85;;
2129;SDS011;1071;52.544;13.374;2023-12-07T09:14:29;25.83;;;19.45;;
2129;SDS011;1071;52.544;13.374;2023-12-07T09:16:56;23.63;;;17.65;;
2129;SDS011;1071;52.544;13.374;2023-12-07T09:19:23;25.90;;;18.73;;
2129;SDS011;1071;52.544;13.374;2023-12-07T09:21:51;29.20;;;20.05;;
2129;SDS011;1071;52.544;13.374;2023-12-07T09:24:18;27.58;;;18.83;;
2129;SDS011;1071;52.544;13.374;2023-12-07T09:26:46;25.52;;;19.45;;
2129;SDS011;1071;52.544;13.374;2023-12-07T09:29:14;25.50;;;20.17;;
2129;SDS011;1071;52.544;13.374;2023-12-07T09:31:40;24.05;;;17.65;;
2129;SDS011;1071;52.544;13.374;2023-12-07T09:34:07;25.25;;;18.05;;
2129;SDS011;1071;52.544;13.374;2023-12-07T09:36:34;26.73;;;17.90;;
2129;SDS011;1071;52.544;13.374;2023-12-07T09:39:02;23.75;;;17.75;;
2129;SDS011;1071;52.544;13.374;2023-12-07T09:41:29;21.02;;;16.33;;
2129;SDS011;1071;52.544;13.374;2023-12-07T09:43:56;27.25;;;17.50;;
2129;SDS011;1071;52.544;13.374;2023-12-07T09:46:25;22.27;;;17.30;;
2129;SDS011;1071;52.544;13.374;2023-12-07T09:48:54;22.90;;;17.33;;
2129;SDS011;1071;52.544;13.374;2023-12-07T09:51:23;25.75;;;17.10;;
2129;SDS011;1071;52.544;13.374;2023-12-07T09:53:51;24.10;;;16.85;;
2129;SDS011;1071;52.544;13.374;2023-12-07T09:56:20;26.45;;;19.13;;
2129;SDS011;1071;52.544;13.374;2023-12-07T09:58:47;26.23;;;18.33;;
2129;SDS011;1071;52.544;13.374;2023-12-07T10:01:14;27.58;;;19.67;;
2129;SDS011;1071;52.544;13.374;2023-12-07T10:03:41;27.77;;;20.30;;
2129;SDS011;1071;52.544;13.374;2023-12-07T10:06:11;27.20;;;17.80;;
2129;SDS011;1071;52.544;13.374;2023-12-07T10:08:38;25.10;;;18.35;;
2129;SDS011;1071;52.544;13.374;2023-12-07T10:11:06;27.17;;;19.30;;
2129;SDS011;1071;52.544;13.374;2023-12-07T10:13:35;31.38;;;20.00;;
2129;SDS011;1071;52.544;13.374;2023-12-07T10:16:07;29.23;;;19.20;;
2129;SDS011;1071;52.544;13.374;2023-12-07T10:18:35;27.85;;;20.05;;
2129;SDS011;1071;52.544;13.374;2023-12-07T10:21:06;27.73;;;19.15;;
2129;SDS011;1071;52.544;13.374;2023-12-07T10:23:34;29.35;;;18.55;;
2129;SDS011;1071;52.544;13.374;2023-12-07T10:26:02;30.20;;;19.25;;
2129;SDS011;1071;52.544;13.374;2023-12-07T10:28:29;28.88;;;19.75;;
2129;SDS011;1071;52.544;13.374;2023-12-07T10:30:57;27.38;;;17.50;;
2129;SDS011;1071;52.544;13.374;2023-12-07T10:33:25;31.08;;;22.45;;
2129;SDS011;1071;52.544;13.374;2023-12-07T10:35:53;31.48;;;21.15;;
2129;SDS011;1071;52.544;13.374;2023-12-07T10:38:19;28.42;;;18.98;;
2129;SDS011;1071;52.544;13.374;2023-12-07T10:40:46;28.98;;;20.23;;
2129;SDS011;1071;52.544;13.374;2023-12-07T10:43:15;26.88;;;19.17;;
2129;SDS011;1071;52.544;13.374;2023-12-07T10:45:45;31.48;;;21.10;;
2129;SDS011;1071;52.544;13.374;2023-12-07T10:48:15;27.65;;;20.13;;
2129;SDS011;1071;52.544;13.374;2023-12-07T10:50:45;27.90;;;20.40;;
2129;SDS011;1071;52.544;13.374;2023-12-07T10:53:15;28.92;;;19.58;;
2129;SDS011;1071;52.544;13.374;2023-12-07T10:55:50;30.05;;;22.23;;
2129;SDS011;1071;52.544;13.374;2023-12-07T10:58:21;30.52;;;20.35;;
2129;SDS011;1071;52.544;13.374;2023-12-07T11:00:50;25.92;;;20.25;;
2129;SDS011;1071;52.544;13.374;2023-12-07T11:03:20;29.13;;;20.38;;
2129;SDS011;1071;52.544;13.374;2023-12-07T11:05:47;31.58;;;19.42;;
2129;SDS011;1071;52.544;13.374;2023-12-07T11:08:16;27.35;;;17.90;;
2129;SDS011;1071;52.544;13.374;2023-12-07T11:10:50;28.67;;;19.88;;
2129;SDS011;1071;52.544;13.374;2023-12-07T11:13:27;32.83;;;21.90;;
2129;SDS011;1071;52.544;13.374;2023-12-07T11:15:55;25.60;;;18.45;;
2129;SDS011;1071;52.544;13.374;2023-12-07T11:18:25;30.95;;;19.73;;
2129;SDS011;1071;52.544;13.374;2023-12-07T11:20:56;27.20;;;19.60;;
2129;SDS011;1071;52.544;13.374;2023-12-07T11:23:24;23.27;;;18.58;;
2129;SDS011;1071;52.544;13.374;2023-12-07T11:25:53;25.58;;;17.58;;
2129;SDS011;1071;52.544;13.374;2023-12-07T11:28:33;24.73;;;17.92;;
2129;SDS011;1071;52.544;13.374;2023-12-07T11:31:02;21.60;;;17.20;;
2129;SDS011;1071;52.544;13.374;2023-12-07T11:33:30;27.35;;;19.65;;
2129;SDS011;1071;52.544;13.374;2023-12-07T11:36:07;25.92;;;19.40;;
2129;SDS011;1071;52.544;13.374;2023-12-07T11:38:35;26.73;;;17.20;;
2129;SDS011;1071;52.544;13.374;2023-12-07T11:41:03;25.20;;;17.25;;
2129;SDS011;1071;52.544;13.374;2023-12-07T11:43:36;27.05;;;18.90;;
2129;SDS011;1071;52.544;13.374;2023-12-07T11:46:08;27.73;;;19.83;;
2129;SDS011;1071;52.544;13.374;2023-12-07T11:48:37;27.77;;;19.98;;
2129;SDS011;1071;52.544;13.374;2023-12-07T11:51:05;24.48;;;19.15;;
2129;SDS011;1071;52.544;13.374;2023-12-07T11:53:34;26.17;;;18.40;;
2129;SDS011;1071;52.544;13.374;2023-12-07T11:56:02;25.67;;;18.50;;
2129;SDS011;1071;52.544;13.374;2023-12-07T11:58:31;27.67;;;20.30;;
2129;SDS011;1071;52.544;13.374;2023-12-07T12:00:59;26.15;;;18.20;;
2129;SDS011;1071;52.544;13.374;2023-12-07T12:03:29;26.67;;;19.75;;
2129;SDS011;1071;52.544;13.374;2023-12-07T12:05:58;29.55;;;21.70;;
2129;SDS011;1071;52.544;13.374;2023-12-07T12:08:26;33.70;;;22.63;;
2129;SDS011;1071;52.544;13.374;2023-12-07T12:10:53;28.98;;;21.95;;
2129;SDS011;1071;52.544;13.374;2023-12-07T12:13:25;28.17;;;20.85;;
2129;SDS011;1071;52.544;13.374;2023-12-07T12:15:54;30.33;;;20.27;;
2129;SDS011;1071;52.544;13.374;2023-12-07T12:18:22;31.65;;;22.35;;
2129;SDS011;1071;52.544;13.374;2023-12-07T12:20:50;31.13;;;21.17;;
2129;SDS011;1071;52.544;13.374;2023-12-07T12:23:19;29.40;;;20.77;;
2129;SDS011;1071;52.544;13.374;2023-12-07T12:25:46;28.13;;;20.40;;
2129;SDS011;1071;52.544;13.374;2023-12-07T12:28:15;30.92;;;21.00;;
2129;SDS011;1071;52.544;13.374;2023-12-07T12:30:44;27.75;;;21.00;;
2129;SDS011;1071;52.544;13.374;2023-12-07T12:33:12;29.35;;;22.50;;
2129;SDS011;1071;52.544;13.374;2023-12-07T12:35:39;30.58;;;21.80;;
2129;SDS011;1071;52.544;13.374;2023-12-07T12:38:09;32.00;;;21.67;;
2129;SDS011;1071;52.544;13.374;2023-12-07T12:40:38;36.97;;;21.25;;
2129;SDS011;1071;52.544;13.374;2023-12-07T12:43:06;34.42;;;23.55;;
2129;SDS011;1071;52.544;13.374;2023-12-07T12:45:34;30.85;;;21.60;;
2129;SDS011;1071;52.544;13.374;2023-12-07T12:48:01;36.60;;;25.83;;
2129;SDS011;1071;52.544;13.374;2023-12-07T12:50:35;34.10;;;25.95;;
2129;SDS011;1071;52.544;13.374;2023-12-07T12:53:04;39.58;;;26.23;;
2129;SDS011;1071;52.544;13.374;2023-12-07T12:55:32;35.47;;;25.08;;
2129;SDS011;1071;52.544;13.374;2023-12-07T12:58:00;40.92;;;26.00;;
2129;SDS011;1071;52.544;13.374;2023-12-07T13:00:29;30.38;;;23.27;;
2129;SDS011;1071;52.544;13.374;2023-12-07T13:02:57;32.03;;;23.60;;
2129;SDS011;1071;52.544;13.374;2023-12-07T13:05:24;34.42;;;24.00;;
2129;SDS011;1071;52.544;13.374;2023-12-07T13:07:51;35.45;;;24.73;;
2129;SDS011;1071;52.544;13.374;2023-12-07T13:10:18;32.17;;;23.63;;
2129;SDS011;1071;52.544;13.374;2023-12-07T13:12:46;33.70;;;25.00;;
2129;SDS011;1071;52.544;13.374;2023-12-07T13:15:14;32.80;;;23.38;;
2129;SDS011;1071;52.544;13.374;2023-12-07T13:17:44;36.22;;;25.65;;
2129;SDS011;1071;52.544;13.374;2023-12-07T13:20:11;34.10;;;23.67;;
2129;SDS011;1071;52.544;13.374;2023-12-07T13:22:39;34.83;;;24.35;;
2129;SDS011;1071;52.544;13.374;2023-12-07T13:25:08;35.30;;;23.65;;
2129;SDS011;1071;52.544;13.374;2023-12-07T13:27:37;41.42;;;27.55;;
2129;SDS011;1071;52.544;13.374;2023-12-07T13:30:04;43.83;;;25.45;;
2129;SDS011;1071;52.544;13.374;2023-12-07T13:32:34;38.78;;;26.20;;
2129;SDS011;1071;52.544;13.374;2023-12-07T13:35:02;44.13;;;28.85;;
2129;SDS011;1071;52.544;13.374;2023-12-07T13:37:29;39.05;;;26.42;;
2129;SDS011;1071;52.544;13.374;2023-12-07T13:39:57;44.05;;;27.67;;
2129;SDS011;1071;52.544;13.374;2023-12-07T13:42:25;40.85;;;28.63;;
2129;SDS011;1071;52.544;13.374;2023-12-07T13:44:53;40.65;;;28.80;;
2129;SDS011;1071;52.544;13.374;2023-12-07T13:47:23;42.22;;;27.58;;
2129;SDS011;1071;52.544;13.374;2023-12-07T13:49:56;41.08;;;27.67;;
2129;SDS011;1071;52.544;13.374;2023-12-07T13:52:24;48.40;;;30.73;;
2129;SDS011;1071;52.544;13.374;2023-12-07T13:54:51;41.35;;;28.48;;
2129;SDS011;1071;52.544;13.374;2023-12-07T13:57:18;49.33;;;30.88;;
2129;SDS011;1071;52.544;13.374;2023-12-07T13:59:45;49.08;;;32.15;;
2129;SDS011;1071;52.544;13.374;2023-12-07T14:02:12;47.22;;;31.60;;
2129;SDS011;1071;52.544;13.374;2023-12-07T14:04:40;47.45;;;29.55;;
2129;SDS011;1071;52.544;13.374;2023-12-07T14:07:09;43.40;;;29.83;;
2129;SDS011;1071;52.544;13.374;2023-12-07T14:09:37;44.08;;;28.70;;
2129;SDS011;1071;52.544;13.374;2023-12-07T14:12:06;44.67;;;29.88;;
2129;SDS011;1071;52.544;13.374;2023-12-07T14:14:34;43.67;;;28.60;;
2129;SDS011;1071;52.544;13.374;2023-12-07T14:17:00;46.67;;;28.88;;
2129;SDS011;1071;52.544;13.374;2023-12-07T14:19:28;51.55;;;33.67;;
2129;SDS011;1071;52.544;13.374;2023-12-07T14:21:55;48.20;;;29.17;;
2129;SDS011;1071;52.544;13.374;2023-12-07T14:24:26;42.15;;;28.65;;
2129;SDS011;1071;52.544;13.374;2023-12-07T14:26:55;41.78;;;27.90;;
2129;SDS011;1071;52.544;13.374;2023-12-07T14:29:23;50.00;;;27.45;;
2129;SDS011;1071;52.544;13.374;2023-12-07T14:31:50;46.13;;;28.83;;
2129;SDS011;1071;52.544;13.374;2023-12-07T14:34:18;42.20;;;27.38;;
2129;SDS011;1071;52.544;13.374;2023-12-07T14:36:45;47.70;;;28.92;;
2129;SDS011;1071;52.544;13.374;2023-12-07T14:39:13;47.17;;;32.15;;